createdAt,value
2019-03-01T00:00:15.089Z,5.40
2019-03-01T00:02:43.511Z,4.63
2019-03-01T00:05:20.585Z,5.70
2019-03-01T00:08:11.053Z,6.23
2019-03-01T00:10:54.630Z,6.53
2019-03-01T00:13:37.910Z,8.23
2019-03-01T00:16:43.687Z,5.20
2019-03-01T00:19:37.421Z,13.83
2019-03-01T00:22:23.861Z,7.70
2019-03-01T00:25:04.145Z,4.10
2019-03-01T00:27:56.669Z,6.33
2019-03-01T00:30:39.967Z,7.17
2019-03-01T00:33:29.129Z,8.60
2019-03-01T00:36:03.449Z,6.23
2019-03-01T00:38:34.973Z,4.67
2019-03-01T00:41:09.062Z,4.23
2019-03-01T00:43:52.494Z,4.13
2019-03-01T00:46:20.929Z,5.37
2019-03-01T00:48:49.365Z,8.70
2019-03-01T00:51:17.857Z,8.90
2019-03-01T00:53:46.393Z,4.30
2019-03-01T00:56:14.828Z,6.10
2019-03-01T00:58:43.285Z,7.23
2019-03-01T01:01:11.712Z,3.57
2019-03-01T01:03:40.267Z,4.60
2019-03-01T01:06:08.737Z,8.40
2019-03-01T01:08:37.274Z,4.63
2019-03-01T01:11:05.858Z,5.60
2019-03-01T01:13:34.288Z,5.07
2019-03-01T01:16:02.756Z,5.13
2019-03-01T01:18:31.213Z,5.13
2019-03-01T01:20:59.736Z,4.50
2019-03-01T01:23:28.183Z,2.90
2019-03-01T01:25:56.712Z,4.60
2019-03-01T01:28:25.229Z,3.30
2019-03-01T01:30:53.785Z,3.60
2019-03-01T01:33:22.247Z,4.30
2019-03-01T01:35:50.864Z,4.67
2019-03-01T01:38:19.359Z,3.60
2019-03-01T01:40:47.980Z,4.67
2019-03-01T01:43:16.531Z,3.97
2019-03-01T01:45:45.050Z,4.00
2019-03-01T01:48:13.727Z,3.30
2019-03-01T01:50:42.313Z,2.83
2019-03-01T01:53:10.755Z,6.53
2019-03-01T01:55:39.308Z,4.47
2019-03-01T01:58:07.873Z,3.53
2019-03-01T02:00:36.291Z,3.67
2019-03-01T02:03:06.424Z,3.40
2019-03-01T02:05:35.041Z,4.50
2019-03-01T02:08:03.574Z,2.50
2019-03-01T02:10:32.087Z,3.53
2019-03-01T02:13:00.627Z,2.40
2019-03-01T02:15:29.041Z,2.90
2019-03-01T02:17:57.486Z,6.00
2019-03-01T02:20:25.930Z,2.70
2019-03-01T02:22:54.373Z,3.23
2019-03-01T02:25:23.061Z,2.83
2019-03-01T02:27:51.589Z,2.63
2019-03-01T02:30:23.397Z,2.17
2019-03-01T02:32:51.866Z,4.60
2019-03-01T02:35:20.659Z,3.03
2019-03-01T02:37:49.140Z,2.47
2019-03-01T02:40:18.015Z,5.00
2019-03-01T02:42:46.530Z,2.80
2019-03-01T02:45:19.617Z,1.60
2019-03-01T02:47:48.234Z,1.73
2019-03-01T02:50:18.289Z,2.07
2019-03-01T02:52:47.243Z,2.40
2019-03-01T02:55:20.555Z,3.60
2019-03-01T02:57:49.241Z,2.27
2019-03-01T03:00:22.762Z,2.10
2019-03-01T03:02:51.214Z,2.73
2019-03-01T03:05:19.958Z,2.70
2019-03-01T03:07:50.054Z,2.70
2019-03-01T03:10:19.254Z,1.97
2019-03-01T03:12:49.417Z,2.30
2019-03-01T03:15:28.612Z,2.57
2019-03-01T03:17:57.222Z,2.77
2019-03-01T03:20:25.784Z,1.70
2019-03-01T03:22:54.297Z,2.17
2019-03-01T03:25:22.954Z,2.40
2019-03-01T03:27:51.414Z,2.00
2019-03-01T03:30:20.491Z,1.60
2019-03-01T03:32:48.993Z,2.83
2019-03-01T03:35:17.569Z,1.90
2019-03-01T03:37:46.101Z,1.67
2019-03-01T03:40:15.682Z,1.40
2019-03-01T03:42:44.237Z,2.33
2019-03-01T03:45:16.724Z,3.53
2019-03-01T03:47:45.377Z,2.83
2019-03-01T03:50:14.843Z,3.63
2019-03-01T03:52:43.389Z,2.03
2019-03-01T03:55:14.987Z,6.00
2019-03-01T03:57:43.783Z,2.00
2019-03-01T04:00:24.042Z,2.47
2019-03-01T04:02:52.649Z,3.70
2019-03-01T04:05:21.134Z,1.97
2019-03-01T04:07:49.666Z,2.00
2019-03-01T04:10:18.097Z,2.60
2019-03-01T04:12:46.569Z,5.87
2019-03-01T04:15:16.391Z,2.03
2019-03-01T04:17:45.073Z,1.77
2019-03-01T04:20:16.673Z,3.40
2019-03-01T04:22:45.261Z,2.30
2019-03-01T04:25:14.016Z,1.90
2019-03-01T04:27:42.595Z,4.17
2019-03-01T04:30:13.455Z,3.97
2019-03-01T04:32:41.947Z,2.10
2019-03-01T04:35:10.563Z,2.93
2019-03-01T04:37:39.099Z,4.53
2019-03-01T04:40:10.127Z,2.03
2019-03-01T04:42:38.611Z,1.70
2019-03-01T04:45:12.450Z,2.97
2019-03-01T04:47:40.966Z,1.77
2019-03-01T04:50:11.065Z,1.97
2019-03-01T04:52:39.679Z,1.83
2019-03-01T04:55:10.634Z,2.10
2019-03-01T04:57:39.102Z,1.40
2019-03-01T05:00:13.114Z,2.03
2019-03-01T05:02:41.714Z,3.50
2019-03-01T05:05:10.256Z,1.83
2019-03-01T05:07:38.702Z,1.40
2019-03-01T05:10:09.979Z,1.63
2019-03-01T05:12:38.641Z,2.27
2019-03-01T05:15:10.147Z,1.80
2019-03-01T05:17:38.611Z,1.40
2019-03-01T05:20:07.596Z,1.70
2019-03-01T05:22:36.146Z,1.60
2019-03-01T05:25:06.841Z,1.80
2019-03-01T05:27:35.558Z,1.70
2019-03-01T05:30:06.512Z,1.37
2019-03-01T05:32:35.083Z,2.57
2019-03-01T05:35:03.963Z,1.53
2019-03-01T05:37:32.448Z,1.93
2019-03-01T05:40:00.865Z,1.80
2019-03-01T05:42:29.274Z,3.20
2019-03-01T05:44:57.789Z,1.73
2019-03-01T05:47:26.322Z,1.30
2019-03-01T05:49:54.800Z,1.70
2019-03-01T05:52:23.236Z,1.50
2019-03-01T05:54:51.765Z,1.70
2019-03-01T05:57:20.433Z,1.60
2019-03-01T05:59:48.900Z,3.63
2019-03-01T06:02:41.139Z,1.73
2019-03-01T06:05:12.252Z,2.10
2019-03-01T06:07:52.577Z,2.77
2019-03-01T06:10:32.762Z,2.90
2019-03-01T06:13:13.232Z,1.30
2019-03-01T06:16:11.677Z,2.37
2019-03-01T06:18:51.765Z,2.30
2019-03-01T06:21:25.975Z,1.60
2019-03-01T06:24:15.058Z,1.53
2019-03-01T06:27:07.520Z,3.77
2019-03-01T06:30:02.708Z,1.50
2019-03-01T06:32:39.922Z,1.80
2019-03-01T06:35:11.423Z,2.93
2019-03-01T06:37:48.866Z,1.50
2019-03-01T06:40:39.775Z,2.90
2019-03-01T06:43:13.781Z,2.50
2019-03-01T06:45:59.966Z,2.43
2019-03-01T06:48:30.028Z,2.07
2019-03-01T06:51:00.089Z,1.97
2019-03-01T06:53:28.565Z,1.37
2019-03-01T06:55:57.041Z,2.37
2019-03-01T06:58:25.522Z,1.87
2019-03-01T07:00:58.132Z,1.80
2019-03-01T07:03:26.592Z,1.20
2019-03-01T07:06:03.134Z,2.10
2019-03-01T07:08:25.194Z,1.47
2019-03-01T07:10:53.609Z,1.40
2019-03-01T07:13:22.058Z,3.00
2019-03-01T07:15:50.509Z,2.63
2019-03-01T07:18:19.022Z,1.60
2019-03-01T07:20:47.607Z,1.80
2019-03-01T07:23:16.143Z,2.40
2019-03-01T07:25:44.645Z,2.20
2019-03-01T07:28:13.051Z,1.80
2019-03-01T07:30:41.614Z,1.60
2019-03-01T07:33:10.088Z,4.53
2019-03-01T07:35:38.539Z,1.40
2019-03-01T07:38:06.970Z,2.30
2019-03-01T07:40:35.411Z,4.90
2019-03-01T07:43:03.851Z,4.23
2019-03-01T07:45:32.418Z,1.50
2019-03-01T07:48:00.889Z,1.80
2019-03-01T07:50:29.325Z,1.40
2019-03-01T07:53:00.346Z,1.30
2019-03-01T07:55:28.388Z,3.87
2019-03-01T07:57:57.917Z,4.90
2019-03-01T08:00:26.661Z,2.47
2019-03-01T08:02:55.134Z,3.03
2019-03-01T08:05:23.588Z,3.13
2019-03-01T08:07:56.167Z,3.13
2019-03-01T08:10:23.167Z,2.13
2019-03-01T08:12:51.889Z,1.97
2019-03-01T08:15:20.389Z,1.93
2019-03-01T08:17:48.814Z,2.50
2019-03-01T08:20:19.163Z,2.47
2019-03-01T08:22:49.258Z,3.53
2019-03-01T08:25:22.858Z,1.50
2019-03-01T08:27:50.335Z,1.77
2019-03-01T08:30:18.768Z,1.20
2019-03-01T08:32:47.261Z,1.47
2019-03-01T08:35:19.259Z,1.63
2019-03-01T08:37:49.932Z,1.80
2019-03-01T08:40:20.689Z,1.60
2019-03-01T08:42:49.258Z,2.13
2019-03-01T08:45:19.213Z,1.97
2019-03-01T08:47:48.734Z,2.00
2019-03-01T08:50:18.052Z,2.27
2019-03-01T08:52:46.899Z,1.77
2019-03-01T08:55:17.766Z,2.57
2019-03-01T08:57:46.281Z,2.00
2019-03-01T09:00:17.561Z,2.27
2019-03-01T09:02:46.004Z,3.60
2019-03-01T09:05:14.573Z,2.80
2019-03-01T09:07:43.036Z,2.63
2019-03-01T09:10:16.868Z,2.50
2019-03-01T09:12:45.294Z,1.97
2019-03-01T09:15:15.437Z,1.87
2019-03-01T09:17:43.933Z,1.67
2019-03-01T09:20:16.207Z,2.33
2019-03-01T09:22:44.996Z,1.80
2019-03-01T09:25:15.061Z,2.13
2019-03-01T09:27:43.514Z,1.53
2019-03-01T09:30:20.473Z,1.47
2019-03-01T09:32:48.935Z,3.57
2019-03-01T09:35:26.322Z,1.50
2019-03-01T09:37:54.737Z,1.50
2019-03-01T09:40:25.567Z,2.70
2019-03-01T09:42:53.415Z,3.60
2019-03-01T09:45:21.985Z,1.30
2019-03-01T09:47:50.512Z,1.53
2019-03-01T09:50:18.953Z,2.03
2019-03-01T09:52:47.375Z,1.30
2019-03-01T09:55:15.837Z,2.43
2019-03-01T09:57:44.340Z,1.30
2019-03-01T10:00:24.652Z,1.90
2019-03-01T10:02:53.273Z,5.80
2019-03-01T10:05:21.812Z,1.60
2019-03-01T10:07:50.212Z,1.40
2019-03-01T10:10:21.740Z,1.63
2019-03-01T10:12:50.183Z,1.57
2019-03-01T10:15:18.698Z,1.47
2019-03-01T10:17:47.144Z,2.13
2019-03-01T10:20:15.818Z,1.40
2019-03-01T10:22:44.313Z,1.40
2019-03-01T10:25:20.194Z,1.40
2019-03-01T10:27:48.634Z,1.30
2019-03-01T10:30:24.226Z,1.83
2019-03-01T10:32:52.725Z,1.40
2019-03-01T10:35:21.258Z,1.50
2019-03-01T10:37:49.762Z,1.77
2019-03-01T10:40:19.933Z,3.40
2019-03-01T10:42:48.359Z,3.50
2019-03-01T10:45:27.119Z,1.60
2019-03-01T10:47:55.586Z,1.20
2019-03-01T10:50:24.280Z,1.50
2019-03-01T10:52:52.704Z,1.40
2019-03-01T10:55:21.571Z,3.27
2019-03-01T10:57:50.181Z,1.23
2019-03-01T11:00:27.251Z,1.20
2019-03-01T11:02:56.658Z,1.10
2019-03-01T11:05:25.837Z,2.17
2019-03-01T11:07:55.006Z,1.10
2019-03-01T11:10:34.928Z,1.60
2019-03-01T11:13:03.571Z,1.00
2019-03-01T11:15:32.049Z,1.07
2019-03-01T11:18:00.543Z,4.00
2019-03-01T11:20:29.031Z,2.20
2019-03-01T11:22:57.649Z,1.93
2019-03-01T11:25:26.592Z,1.40
2019-03-01T11:27:57.054Z,1.30
2019-03-01T11:30:28.201Z,1.60
2019-03-01T11:32:56.728Z,2.97
2019-03-01T11:35:25.215Z,1.63
2019-03-01T11:37:53.889Z,1.43
2019-03-01T11:40:25.543Z,2.77
2019-03-01T11:42:53.999Z,1.20
2019-03-01T11:45:22.536Z,1.40
2019-03-01T11:47:51.057Z,1.63
2019-03-01T11:50:23.940Z,1.50
2019-03-01T11:52:52.481Z,1.50
2019-03-01T11:55:21.236Z,1.27
2019-03-01T11:57:50.703Z,1.67
2019-03-01T12:00:21.549Z,1.93
2019-03-01T12:02:50.622Z,3.50
2019-03-01T12:05:19.405Z,3.20
2019-03-01T12:07:47.904Z,2.00
2019-03-01T12:10:25.434Z,2.40
2019-03-01T12:12:53.951Z,2.47
2019-03-01T12:15:22.520Z,2.67
2019-03-01T12:17:50.927Z,2.40
2019-03-01T12:20:24.290Z,3.33
2019-03-01T12:22:52.849Z,3.37
2019-03-01T12:25:21.293Z,3.63
2019-03-01T12:27:49.702Z,2.80
2019-03-01T12:30:20.660Z,4.20
2019-03-01T12:32:49.151Z,3.13
2019-03-01T12:35:17.736Z,3.50
2019-03-01T12:37:46.300Z,3.30
2019-03-01T12:40:23.439Z,4.40
2019-03-01T12:42:51.922Z,3.83
2019-03-01T12:45:20.470Z,3.27
2019-03-01T12:47:49.140Z,3.53
2019-03-01T12:50:17.640Z,4.50
2019-03-01T12:52:46.291Z,3.10
2019-03-01T12:55:22.568Z,3.37
2019-03-01T12:57:51.003Z,3.70
2019-03-01T13:00:24.449Z,4.30
2019-03-01T13:02:52.880Z,4.30
2019-03-01T13:05:21.340Z,4.10
2019-03-01T13:07:49.761Z,4.70
2019-03-01T13:10:29.433Z,4.13
2019-03-01T13:12:58.796Z,3.67
2019-03-01T13:15:28.086Z,3.97
2019-03-01T13:17:56.514Z,4.63
2019-03-01T13:20:25.052Z,4.70
2019-03-01T13:22:53.470Z,4.30
2019-03-01T13:25:21.908Z,4.93
2019-03-01T13:27:52.592Z,3.63
2019-03-01T13:30:23.002Z,4.57
2019-03-01T13:32:51.532Z,4.47
2019-03-01T13:35:22.373Z,4.90
2019-03-01T13:37:51.984Z,4.73
2019-03-01T13:40:24.496Z,4.70
2019-03-01T13:42:52.133Z,3.97
2019-03-01T13:45:22.270Z,4.40
2019-03-01T13:47:50.833Z,3.83
2019-03-01T13:50:20.114Z,4.63
2019-03-01T13:52:50.140Z,4.37
2019-03-01T13:55:22.293Z,3.70
2019-03-01T14:00:20.836Z,5.13
2019-03-01T14:02:49.787Z,3.60
2019-03-01T14:05:18.913Z,5.13
2019-03-01T14:07:47.959Z,3.87
2019-03-01T14:10:26.586Z,4.23
2019-03-01T14:12:55.129Z,3.93
2019-03-01T14:15:23.670Z,4.57
2019-03-01T14:17:52.201Z,6.10
2019-03-01T14:20:21.515Z,4.40
2019-03-01T14:22:50.210Z,4.40
2019-03-01T14:25:18.761Z,4.03
2019-03-01T14:27:47.536Z,5.70
2019-03-01T14:30:21.077Z,4.90
2019-03-01T14:32:49.733Z,4.77
2019-03-01T14:35:20.526Z,5.30
2019-03-01T14:37:54.116Z,6.23
2019-03-01T14:40:22.637Z,5.70
2019-03-01T14:42:49.781Z,7.30
2019-03-01T14:45:28.997Z,7.60
2019-03-01T14:47:57.601Z,6.27
2019-03-01T14:50:30.075Z,6.83
2019-03-01T14:52:58.934Z,7.00
2019-03-01T14:55:45.955Z,7.03
2019-03-01T14:58:22.314Z,8.30
2019-03-01T15:01:10.349Z,7.20
2019-03-01T15:03:39.623Z,7.57
2019-03-01T15:06:08.291Z,7.87
2019-03-01T15:08:40.474Z,7.50
2019-03-01T15:11:12.787Z,8.87
2019-03-01T15:13:41.274Z,8.40
2019-03-01T15:16:10.077Z,7.63
2019-03-01T15:18:40.201Z,9.43
2019-03-01T15:21:09.581Z,8.50
2019-03-01T15:23:38.192Z,8.97
2019-03-01T15:26:06.790Z,9.30
2019-03-01T15:28:40.967Z,10.43
2019-03-01T15:31:09.465Z,6.33
2019-03-01T15:33:37.902Z,4.13
2019-03-01T15:36:06.454Z,4.30
2019-03-01T15:38:34.895Z,4.20
2019-03-01T15:41:03.678Z,4.50
2019-03-01T15:43:33.473Z,6.33
2019-03-01T15:46:02.006Z,7.60
2019-03-01T15:48:30.433Z,7.70
2019-03-01T15:51:02.127Z,9.70
2019-03-01T15:53:29.041Z,9.63
2019-03-01T15:55:57.492Z,9.50
2019-03-01T15:58:29.227Z,9.13
2019-03-01T16:00:56.304Z,8.97
2019-03-01T16:03:24.738Z,9.77
2019-03-01T16:05:54.881Z,9.90
2019-03-01T16:08:23.400Z,12.77
2019-03-01T16:10:51.895Z,11.03
2019-03-01T16:13:20.337Z,10.23
2019-03-01T16:15:48.874Z,12.03
2019-03-01T16:18:17.347Z,11.47
2019-03-01T16:20:47.229Z,11.17
2019-03-01T16:23:15.851Z,11.43
2019-03-01T16:25:44.365Z,13.50
2019-03-01T16:28:14.640Z,13.07
2019-03-01T16:30:43.323Z,12.50
2019-03-01T16:33:11.768Z,12.97
2019-03-01T16:35:40.276Z,13.90
2019-03-01T16:38:08.760Z,14.27
2019-03-01T16:40:37.210Z,14.57
2019-03-01T16:43:05.741Z,16.27
2019-03-01T16:45:36.227Z,15.70
2019-03-01T16:48:04.590Z,14.57
2019-03-01T16:50:33.032Z,15.30
2019-03-01T16:53:04.422Z,14.23
2019-03-01T16:55:31.930Z,13.33
2019-03-01T16:58:06.897Z,13.77
2019-03-01T17:00:30.750Z,16.80
2019-03-01T17:03:05.388Z,15.80
2019-03-01T17:05:35.755Z,16.20
2019-03-01T17:08:05.912Z,15.90
2019-03-01T17:10:34.701Z,16.10
2019-03-01T17:13:03.138Z,14.80
2019-03-01T17:15:31.661Z,16.20
2019-03-01T17:18:01.326Z,15.83
2019-03-01T17:20:29.829Z,17.20
2019-03-01T17:22:59.801Z,15.67
2019-03-01T17:25:28.440Z,17.60
2019-03-01T17:27:56.903Z,16.73
2019-03-01T17:30:26.198Z,16.50
2019-03-01T17:32:54.706Z,17.53
2019-03-01T17:35:23.275Z,16.13
2019-03-01T17:37:51.861Z,17.97
2019-03-01T17:40:20.689Z,17.20
2019-03-01T17:42:49.346Z,20.40
2019-03-01T17:45:23.642Z,18.50
2019-03-01T17:47:52.348Z,18.90
2019-03-01T17:50:20.937Z,16.10
2019-03-01T17:52:51.636Z,17.37
2019-03-01T17:55:24.521Z,18.77
2019-03-01T17:57:53.309Z,19.03
2019-03-01T18:00:37.196Z,17.40
2019-03-01T18:03:05.852Z,18.23
2019-03-01T18:05:36.977Z,17.07
2019-03-01T18:08:05.044Z,16.83
2019-03-01T18:10:33.658Z,18.47
2019-03-01T18:13:02.149Z,19.30
2019-03-01T18:15:30.664Z,17.10
2019-03-01T18:17:59.112Z,17.07
2019-03-01T18:20:27.721Z,16.77
2019-03-01T18:22:59.415Z,18.07
2019-03-01T18:25:27.119Z,20.50
2019-03-01T18:27:55.708Z,18.63
2019-03-01T18:30:27.277Z,20.30
2019-03-01T18:32:55.758Z,18.37
2019-03-01T18:35:24.235Z,20.10
2019-03-01T18:37:55.077Z,18.73
2019-03-01T18:40:23.019Z,17.70
2019-03-01T18:42:51.551Z,18.33
2019-03-01T18:45:21.609Z,18.73
2019-03-01T18:47:50.187Z,23.77
2019-03-01T18:50:31.219Z,21.80
2019-03-01T18:52:58.951Z,21.23
2019-03-01T18:55:27.468Z,25.03
2019-03-01T18:57:55.913Z,24.50
2019-03-01T19:00:35.429Z,23.27
2019-03-01T19:03:04.629Z,24.30
2019-03-01T19:05:32.948Z,27.13
2019-03-01T19:08:04.833Z,27.23
2019-03-01T19:10:31.768Z,26.50
2019-03-01T19:13:00.275Z,24.40
2019-03-01T19:15:28.896Z,22.93
2019-03-01T19:17:57.586Z,29.40
2019-03-01T19:20:29.129Z,26.43
2019-03-01T19:22:57.686Z,31.07
2019-03-01T19:25:26.527Z,26.03
2019-03-01T19:27:55.193Z,26.20
2019-03-01T19:30:24.954Z,28.47
2019-03-01T19:32:53.504Z,28.00
2019-03-01T19:35:28.565Z,27.97
2019-03-01T19:37:52.306Z,30.17
2019-03-01T19:40:22.448Z,27.30
2019-03-01T19:42:50.935Z,34.53
2019-03-01T19:45:19.764Z,30.67
2019-03-01T19:47:48.375Z,35.87
2019-03-01T19:50:25.048Z,35.90
2019-03-01T19:52:53.503Z,34.80
2019-03-01T19:55:22.063Z,37.33
2019-03-01T19:57:50.619Z,34.17
2019-03-01T20:00:30.763Z,37.43
2019-03-01T20:02:59.187Z,37.87
2019-03-01T20:05:33.034Z,35.97
2019-03-01T20:08:01.698Z,43.07
2019-03-01T20:10:30.290Z,36.30
2019-03-01T20:12:58.706Z,37.47
2019-03-01T20:15:28.503Z,39.00
2019-03-01T20:17:57.132Z,40.90
2019-03-01T20:20:29.733Z,41.30
2019-03-01T20:22:56.697Z,40.90
2019-03-01T20:25:25.529Z,39.90
2019-03-01T20:27:54.020Z,35.70
2019-03-01T20:30:30.681Z,35.37
2019-03-01T20:32:59.503Z,35.90
2019-03-01T20:35:28.109Z,32.30
2019-03-01T20:38:00.103Z,35.83
2019-03-01T20:40:28.085Z,33.00
2019-03-01T20:43:00.529Z,38.60
2019-03-01T20:45:38.060Z,31.53
2019-03-01T20:48:06.692Z,33.13
2019-03-01T20:50:36.554Z,31.37
2019-03-01T20:53:05.170Z,34.97
2019-03-01T20:55:37.195Z,34.40
2019-03-01T20:58:04.313Z,30.77
2019-03-01T21:00:32.949Z,34.30
2019-03-01T21:03:01.534Z,30.33
2019-03-01T21:05:30.574Z,31.53
2019-03-01T21:07:59.306Z,32.80
2019-03-01T21:10:29.390Z,30.43
2019-03-01T21:12:57.922Z,33.53
2019-03-01T21:15:26.454Z,33.80
2019-03-01T21:17:57.022Z,31.03
2019-03-01T21:20:26.585Z,29.33
2019-03-01T21:22:55.134Z,31.00
2019-03-01T21:25:24.507Z,33.80
2019-03-01T21:27:53.035Z,31.60
2019-03-01T21:30:24.846Z,31.57
2019-03-01T21:32:53.484Z,32.63
2019-03-01T21:35:22.085Z,30.53
2019-03-01T21:37:50.889Z,28.07
2019-03-01T21:40:19.353Z,32.63
2019-03-01T21:42:47.948Z,32.20
2019-03-01T21:45:21.583Z,33.57
2019-03-01T21:47:50.962Z,29.67
2019-03-01T21:50:19.616Z,32.60
2019-03-01T21:52:48.138Z,30.57
2019-03-01T21:55:28.562Z,28.80
2019-03-01T21:57:55.396Z,30.40
2019-03-01T22:00:29.614Z,31.43
2019-03-01T22:02:56.370Z,30.77
2019-03-01T22:05:24.972Z,31.37
2019-03-01T22:07:53.477Z,30.83
2019-03-01T22:10:22.104Z,29.13
2019-03-01T22:12:50.652Z,30.57
2019-03-01T22:15:25.802Z,26.90
2019-03-01T22:17:55.843Z,31.37
2019-03-01T22:20:24.719Z,31.43
2019-03-01T22:22:53.187Z,32.03
2019-03-01T22:25:21.708Z,28.47
2019-03-01T22:27:50.160Z,30.37
2019-03-01T22:30:32.790Z,28.00
2019-03-01T22:33:01.220Z,33.57
2019-03-01T22:35:29.699Z,27.90
2019-03-01T22:38:00.990Z,29.83
2019-03-01T22:40:29.436Z,28.27
2019-03-01T22:42:58.007Z,32.37
2019-03-01T22:45:26.498Z,27.67
2019-03-01T22:47:54.948Z,28.30
2019-03-01T22:50:23.427Z,25.57
2019-03-01T22:52:51.909Z,28.53
2019-03-01T22:55:21.826Z,27.60
2019-03-01T22:57:50.346Z,28.07
2019-03-01T23:00:47.347Z,29.47
2019-03-01T23:03:18.831Z,26.50
2019-03-01T23:05:46.789Z,28.10
2019-03-01T23:08:15.324Z,28.83
2019-03-01T23:10:43.811Z,28.53
2019-03-01T23:13:12.263Z,28.87
2019-03-01T23:15:43.290Z,33.37
2019-03-01T23:18:11.148Z,33.57
2019-03-01T23:20:39.720Z,28.60
2019-03-01T23:23:08.286Z,34.63
2019-03-01T23:25:36.784Z,27.13
2019-03-01T23:28:08.127Z,30.40
2019-03-01T23:30:35.460Z,31.73
2019-03-01T23:33:03.990Z,30.27
2019-03-01T23:35:32.480Z,30.87
2019-03-01T23:38:00.941Z,32.33
2019-03-01T23:40:32.759Z,32.40
2019-03-01T23:42:59.530Z,35.00
2019-03-01T23:45:27.965Z,33.40
2019-03-01T23:47:56.418Z,31.13
2019-03-01T23:50:24.868Z,32.40
2019-03-01T23:52:54.759Z,28.67
2019-03-01T23:55:23.478Z,30.23
2019-03-01T23:57:51.921Z,32.10
